sensor_id;sensor_type;location;lat;lon;timestamp;pressure;altitude;pressure_sealevel;temperature;humidity
59873;BME280;50750;51.636;4.948;2023-05-23T00:02:12;102107.09;;;21.81;62.16
59873;BME280;50750;51.636;4.948;2023-05-23T00:04:40;102108.94;;;21.80;62.15
59873;BME280;50750;51.636;4.948;2023-05-23T00:07:08;102104.92;;;21.79;62.23
59873;BME280;50750;51.636;4.948;2023-05-23T00:09:34;102102.27;;;21.79;62.09
59873;BME280;50750;51.636;4.948;2023-05-23T00:12:01;102108.37;;;21.78;62.17
59873;BME280;50750;51.636;4.948;2023-05-23T00:14:28;102104.09;;;21.78;62.19
59873;BME280;50750;51.636;4.948;2023-05-23T00:16:59;102106.05;;;21.78;61.96
59873;BME280;50750;51.636;4.948;2023-05-23T00:19:26;102114.77;;;21.78;61.92
59873;BME280;50750;51.636;4.948;2023-05-23T00:21:52;102116.38;;;21.78;62.00
59873;BME280;50750;51.636;4.948;2023-05-23T00:24:22;102117.79;;;21.78;61.96
59873;BME280;50750;51.636;4.948;2023-05-23T00:26:48;102115.18;;;21.77;61.86
59873;BME280;50750;51.636;4.948;2023-05-23T00:29:15;102121.46;;;21.76;61.88
59873;BME280;50750;51.636;4.948;2023-05-23T00:31:42;102124.54;;;21.76;61.87
59873;BME280;50750;51.636;4.948;2023-05-23T00:34:12;102132.95;;;21.75;61.92
59873;BME280;50750;51.636;4.948;2023-05-23T00:36:39;102139.06;;;21.74;61.94
59873;BME280;50750;51.636;4.948;2023-05-23T00:39:08;102137.31;;;21.74;61.85
59873;BME280;50750;51.636;4.948;2023-05-23T00:41:49;102143.40;;;21.73;61.90
59873;BME280;50750;51.636;4.948;2023-05-23T00:44:17;102142.21;;;21.72;61.90
59873;BME280;50750;51.636;4.948;2023-05-23T00:46:47;102146.73;;;21.71;61.90
59873;BME280;50750;51.636;4.948;2023-05-23T00:49:14;102148.34;;;21.71;61.87
59873;BME280;50750;51.636;4.948;2023-05-23T00:51:45;102149.46;;;21.70;61.76
59873;BME280;50750;51.636;4.948;2023-05-23T00:54:12;102152.73;;;21.69;61.98
59873;BME280;50750;51.636;4.948;2023-05-23T00:56:40;102155.11;;;21.68;61.88
59873;BME280;50750;51.636;4.948;2023-05-23T00:59:09;102157.80;;;21.68;61.85
59873;BME280;50750;51.636;4.948;2023-05-23T01:01:36;102155.85;;;21.68;61.97
59873;BME280;50750;51.636;4.948;2023-05-23T01:04:03;102154.42;;;21.68;61.87
59873;BME280;50750;51.636;4.948;2023-05-23T01:06:30;102152.08;;;21.68;61.79
59873;BME280;50750;51.636;4.948;2023-05-23T01:08:58;102148.34;;;21.68;61.87
59873;BME280;50750;51.636;4.948;2023-05-23T01:11:40;102149.02;;;21.69;61.75
59873;BME280;50750;51.636;4.948;2023-05-23T01:14:18;102151.15;;;21.69;61.86
59873;BME280;50750;51.636;4.948;2023-05-23T01:17:10;102150.27;;;21.69;61.87
59873;BME280;50750;51.636;4.948;2023-05-23T01:22:35;102151.17;;;21.68;61.69
59873;BME280;50750;51.636;4.948;2023-05-23T01:28:02;102156.40;;;21.67;61.76
59873;BME280;50750;51.636;4.948;2023-05-23T01:30:31;102158.94;;;21.67;61.75
59873;BME280;50750;51.636;4.948;2023-05-23T01:32:58;102164.30;;;21.66;61.70
59873;BME280;50750;51.636;4.948;2023-05-23T01:35:26;102161.87;;;21.65;61.83
59873;BME280;50750;51.636;4.948;2023-05-23T01:37:56;102161.95;;;21.64;61.80
59873;BME280;50750;51.636;4.948;2023-05-23T01:40:23;102158.27;;;21.62;61.78
59873;BME280;50750;51.636;4.948;2023-05-23T01:42:54;102158.31;;;21.62;61.79
59873;BME280;50750;51.636;4.948;2023-05-23T01:45:25;102159.09;;;21.60;61.76
59873;BME280;50750;51.636;4.948;2023-05-23T01:47:53;102160.72;;;21.60;61.86
59873;BME280;50750;51.636;4.948;2023-05-23T01:50:22;102156.27;;;21.60;61.77
59873;BME280;50750;51.636;4.948;2023-05-23T01:52:50;102157.52;;;21.59;61.75
59873;BME280;50750;51.636;4.948;2023-05-23T01:55:18;102163.02;;;21.60;61.78
59873;BME280;50750;51.636;4.948;2023-05-23T01:57:53;102166.94;;;21.60;61.90
59873;BME280;50750;51.636;4.948;2023-05-23T02:00:20;102167.80;;;21.61;61.76
59873;BME280;50750;51.636;4.948;2023-05-23T02:02:47;102170.83;;;21.61;61.69
59873;BME280;50750;51.636;4.948;2023-05-23T02:05:14;102170.29;;;21.61;61.80
59873;BME280;50750;51.636;4.948;2023-05-23T02:07:40;102173.84;;;21.61;61.95
59873;BME280;50750;51.636;4.948;2023-05-23T02:10:08;102174.23;;;21.61;61.76
59873;BME280;50750;51.636;4.948;2023-05-23T02:12:35;102175.64;;;21.61;61.81
59873;BME280;50750;51.636;4.948;2023-05-23T02:15:01;102176.40;;;21.60;61.68
59873;BME280;50750;51.636;4.948;2023-05-23T02:17:28;102181.93;;;21.60;61.80
59873;BME280;50750;51.636;4.948;2023-05-23T02:19:55;102189.27;;;21.59;61.84
59873;BME280;50750;51.636;4.948;2023-05-23T02:22:23;102192.17;;;21.58;61.73
59873;BME280;50750;51.636;4.948;2023-05-23T02:24:52;102194.20;;;21.57;61.74
59873;BME280;50750;51.636;4.948;2023-05-23T02:27:18;102192.79;;;21.57;61.91
59873;BME280;50750;51.636;4.948;2023-05-23T02:29:45;102192.65;;;21.56;61.93
59873;BME280;50750;51.636;4.948;2023-05-23T02:32:11;102189.31;;;21.55;61.93
59873;BME280;50750;51.636;4.948;2023-05-23T02:34:38;102190.96;;;21.55;61.90
59873;BME280;50750;51.636;4.948;2023-05-23T02:37:05;102190.63;;;21.54;61.83
59873;BME280;50750;51.636;4.948;2023-05-23T02:39:34;102191.34;;;21.54;61.78
59873;BME280;50750;51.636;4.948;2023-05-23T02:42:01;102190.63;;;21.54;61.75
59873;BME280;50750;51.636;4.948;2023-05-23T02:44:28;102186.38;;;21.54;61.83
59873;BME280;50750;51.636;4.948;2023-05-23T02:46:54;102185.66;;;21.54;61.76
59873;BME280;50750;51.636;4.948;2023-05-23T02:49:21;102183.71;;;21.54;61.93
59873;BME280;50750;51.636;4.948;2023-05-23T02:51:47;102177.47;;;21.54;61.76
59873;BME280;50750;51.636;4.948;2023-05-23T02:54:14;102178.56;;;21.53;61.82
59873;BME280;50750;51.636;4.948;2023-05-23T02:56:41;102175.56;;;21.53;61.78
59873;BME280;50750;51.636;4.948;2023-05-23T02:59:07;102176.66;;;21.52;61.74
59873;BME280;50750;51.636;4.948;2023-05-23T03:01:34;102176.14;;;21.52;61.87
59873;BME280;50750;51.636;4.948;2023-05-23T03:04:00;102178.27;;;21.52;61.76
59873;BME280;50750;51.636;4.948;2023-05-23T03:06:27;102178.84;;;21.51;61.70
59873;BME280;50750;51.636;4.948;2023-05-23T03:08:54;102177.27;;;21.51;61.69
59873;BME280;50750;51.636;4.948;2023-05-23T03:11:20;102175.55;;;21.50;61.83
59873;BME280;50750;51.636;4.948;2023-05-23T03:13:48;102182.34;;;21.50;61.75
59873;BME280;50750;51.636;4.948;2023-05-23T03:16:14;102184.70;;;21.49;61.89
59873;BME280;50750;51.636;4.948;2023-05-23T03:18:41;102186.36;;;21.48;61.89
59873;BME280;50750;51.636;4.948;2023-05-23T03:21:07;102185.52;;;21.47;61.95
59873;BME280;50750;51.636;4.948;2023-05-23T03:23:34;102182.34;;;21.46;61.74
59873;BME280;50750;51.636;4.948;2023-05-23T03:26:01;102189.18;;;21.45;61.79
59873;BME280;50750;51.636;4.948;2023-05-23T03:28:32;102194.00;;;21.45;61.84
59873;BME280;50750;51.636;4.948;2023-05-23T03:30:58;102190.27;;;21.45;61.66
59873;BME280;50750;51.636;4.948;2023-05-23T03:33:25;102194.88;;;21.46;61.91
59873;BME280;50750;51.636;4.948;2023-05-23T03:35:51;102196.08;;;21.46;61.70
59873;BME280;50750;51.636;4.948;2023-05-23T03:38:18;102197.13;;;21.47;61.83
59873;BME280;50750;51.636;4.948;2023-05-23T03:40:44;102198.38;;;21.47;61.61
59873;BME280;50750;51.636;4.948;2023-05-23T03:43:11;102197.44;;;21.48;61.78
59873;BME280;50750;51.636;4.948;2023-05-23T03:45:38;102200.06;;;21.48;61.69
59873;BME280;50750;51.636;4.948;2023-05-23T03:48:05;102205.36;;;21.49;61.58
59873;BME280;50750;51.636;4.948;2023-05-23T03:50:31;102208.73;;;21.50;61.68
59873;BME280;50750;51.636;4.948;2023-05-23T03:52:58;102212.27;;;21.50;61.74
59873;BME280;50750;51.636;4.948;2023-05-23T03:55:24;102215.63;;;21.50;61.65
59873;BME280;50750;51.636;4.948;2023-05-23T03:57:51;102218.63;;;21.51;61.62
59873;BME280;50750;51.636;4.948;2023-05-23T04:00:17;102218.64;;;21.51;61.39
59873;BME280;50750;51.636;4.948;2023-05-23T04:02:45;102225.30;;;21.50;61.59
59873;BME280;50750;51.636;4.948;2023-05-23T04:05:12;102223.72;;;21.49;61.44
59873;BME280;50750;51.636;4.948;2023-05-23T04:07:38;102226.06;;;21.48;61.56
59873;BME280;50750;51.636;4.948;2023-05-23T04:10:07;102227.23;;;21.47;61.63
59873;BME280;50750;51.636;4.948;2023-05-23T04:12:35;102232.42;;;21.46;61.72
59873;BME280;50750;51.636;4.948;2023-05-23T04:15:02;102236.81;;;21.45;61.64
59873;BME280;50750;51.636;4.948;2023-05-23T04:17:29;102235.98;;;21.43;61.53
59873;BME280;50750;51.636;4.948;2023-05-23T04:19:57;102233.73;;;21.42;61.57
59873;BME280;50750;51.636;4.948;2023-05-23T04:22:23;102233.40;;;21.41;61.57
59873;BME280;50750;51.636;4.948;2023-05-23T04:24:50;102235.02;;;21.41;61.41
59873;BME280;50750;51.636;4.948;2023-05-23T04:27:16;102235.36;;;21.41;61.63
59873;BME280;50750;51.636;4.948;2023-05-23T04:29:43;102238.40;;;21.41;61.44
59873;BME280;50750;51.636;4.948;2023-05-23T04:32:09;102244.46;;;21.41;61.46
59873;BME280;50750;51.636;4.948;2023-05-23T04:34:36;102244.65;;;21.41;61.54
59873;BME280;50750;51.636;4.948;2023-05-23T04:37:03;102247.68;;;21.41;61.54
59873;BME280;50750;51.636;4.948;2023-05-23T04:39:30;102250.91;;;21.40;61.44
59873;BME280;50750;51.636;4.948;2023-05-23T04:41:56;102251.86;;;21.39;61.57
59873;BME280;50750;51.636;4.948;2023-05-23T04:44:23;102257.23;;;21.39;61.45
59873;BME280;50750;51.636;4.948;2023-05-23T04:46:49;102260.80;;;21.38;61.45
59873;BME280;50750;51.636;4.948;2023-05-23T04:49:16;102263.32;;;21.38;61.38
59873;BME280;50750;51.636;4.948;2023-05-23T04:51:42;102265.69;;;21.37;61.42
59873;BME280;50750;51.636;4.948;2023-05-23T04:54:09;102268.73;;;21.36;61.49
59873;BME280;50750;51.636;4.948;2023-05-23T04:56:35;102271.10;;;21.35;61.47
59873;BME280;50750;51.636;4.948;2023-05-23T04:59:02;102271.50;;;21.34;61.52
59873;BME280;50750;51.636;4.948;2023-05-23T05:01:28;102277.60;;;21.34;61.40
59873;BME280;50750;51.636;4.948;2023-05-23T05:03:55;102278.58;;;21.32;61.49
59873;BME280;50750;51.636;4.948;2023-05-23T05:06:22;102283.42;;;21.31;61.32
59873;BME280;50750;51.636;4.948;2023-05-23T05:08:48;102287.21;;;21.31;61.53
59873;BME280;50750;51.636;4.948;2023-05-23T05:11:15;102286.55;;;21.30;61.37
59873;BME280;50750;51.636;4.948;2023-05-23T05:13:42;102289.83;;;21.29;61.41
59873;BME280;50750;51.636;4.948;2023-05-23T05:16:08;102290.57;;;21.28;61.54
59873;BME280;50750;51.636;4.948;2023-05-23T05:18:34;102292.91;;;21.27;61.48
59873;BME280;50750;51.636;4.948;2023-05-23T05:21:01;102295.94;;;21.27;61.53
59873;BME280;50750;51.636;4.948;2023-05-23T05:23:30;102297.70;;;21.28;61.47
59873;BME280;50750;51.636;4.948;2023-05-23T05:25:56;102302.33;;;21.28;61.37
59873;BME280;50750;51.636;4.948;2023-05-23T05:28:23;102304.10;;;21.28;61.36
59873;BME280;50750;51.636;4.948;2023-05-23T05:30:49;102308.73;;;21.28;61.43
59873;BME280;50750;51.636;4.948;2023-05-23T05:33:19;102306.23;;;21.28;61.32
59873;BME280;50750;51.636;4.948;2023-05-23T05:35:49;102310.51;;;21.28;61.45
59873;BME280;50750;51.636;4.948;2023-05-23T05:38:18;102314.44;;;21.28;61.19
59873;BME280;50750;51.636;4.948;2023-05-23T05:40:45;102318.91;;;21.27;61.00
59873;BME280;50750;51.636;4.948;2023-05-23T05:43:11;102321.58;;;21.25;59.41
59873;BME280;50750;51.636;4.948;2023-05-23T05:45:38;102332.17;;;21.23;59.52
59873;BME280;50750;51.636;4.948;2023-05-23T05:48:05;102334.93;;;21.21;59.75
59873;BME280;50750;51.636;4.948;2023-05-23T05:50:31;102335.52;;;21.20;59.87
59873;BME280;50750;51.636;4.948;2023-05-23T05:52:58;102339.14;;;21.19;59.95
59873;BME280;50750;51.636;4.948;2023-05-23T05:55:24;102340.98;;;21.17;60.10
59873;BME280;50750;51.636;4.948;2023-05-23T05:57:51;102341.39;;;21.16;60.02
59873;BME280;50750;51.636;4.948;2023-05-23T06:00:18;102337.88;;;21.15;60.20
59873;BME280;50750;51.636;4.948;2023-05-23T06:02:45;102344.15;;;21.15;60.29
59873;BME280;50750;51.636;4.948;2023-05-23T06:05:13;102343.81;;;21.14;60.39
59873;BME280;50750;51.636;4.948;2023-05-23T06:07:42;102348.16;;;21.13;60.44
59873;BME280;50750;51.636;4.948;2023-05-23T06:10:09;102348.73;;;21.12;60.44
59873;BME280;50750;51.636;4.948;2023-05-23T06:12:39;102356.61;;;21.11;60.55
59873;BME280;50750;51.636;4.948;2023-05-23T06:15:06;102354.55;;;21.10;60.55
59873;BME280;50750;51.636;4.948;2023-05-23T06:17:33;102361.35;;;21.09;60.55
59873;BME280;50750;51.636;4.948;2023-05-23T06:19:59;102362.47;;;21.08;60.60
59873;BME280;50750;51.636;4.948;2023-05-23T06:22:26;102361.48;;;21.07;60.72
59873;BME280;50750;51.636;4.948;2023-05-23T06:24:53;102360.43;;;21.06;60.76
59873;BME280;50750;51.636;4.948;2023-05-23T06:27:20;102362.99;;;21.05;60.74
59873;BME280;50750;51.636;4.948;2023-05-23T06:29:46;102366.05;;;21.05;60.65
59873;BME280;50750;51.636;4.948;2023-05-23T06:32:13;102368.58;;;21.04;60.73
59873;BME280;50750;51.636;4.948;2023-05-23T06:34:39;102367.54;;;21.03;60.71
59873;BME280;50750;51.636;4.948;2023-05-23T06:37:06;102369.19;;;21.02;60.83
59873;BME280;50750;51.636;4.948;2023-05-23T06:39:32;102372.58;;;21.02;60.83
59873;BME280;50750;51.636;4.948;2023-05-23T06:41:59;102370.84;;;21.01;60.89
59873;BME280;50750;51.636;4.948;2023-05-23T06:44:26;102370.52;;;21.01;60.82
59873;BME280;50750;51.636;4.948;2023-05-23T06:46:52;102372.85;;;21.01;60.63
59873;BME280;50750;51.636;4.948;2023-05-23T06:49:24;102375.39;;;21.00;60.80
59873;BME280;50750;51.636;4.948;2023-05-23T06:51:51;102378.98;;;20.99;60.76
59873;BME280;50750;51.636;4.948;2023-05-23T06:54:18;102380.44;;;20.99;60.72
59873;BME280;50750;51.636;4.948;2023-05-23T06:56:44;102382.92;;;20.98;60.92
59873;BME280;50750;51.636;4.948;2023-05-23T06:59:11;102381.50;;;20.98;60.98
59873;BME280;50750;51.636;4.948;2023-05-23T07:01:38;102390.17;;;20.99;60.85
59873;BME280;50750;51.636;4.948;2023-05-23T07:04:05;102390.52;;;21.00;60.90
59873;BME280;50750;51.636;4.948;2023-05-23T07:06:31;102395.29;;;21.00;60.94
59873;BME280;50750;51.636;4.948;2023-05-23T07:08:58;102399.01;;;21.01;60.87
59873;BME280;50750;51.636;4.948;2023-05-23T07:11:24;102398.61;;;21.02;60.82
59873;BME280;50750;51.636;4.948;2023-05-23T07:13:51;102404.31;;;21.02;60.69
59873;BME280;50750;51.636;4.948;2023-05-23T07:16:18;102410.89;;;21.02;60.55
59873;BME280;50750;51.636;4.948;2023-05-23T07:18:44;102412.83;;;21.02;60.68
59873;BME280;50750;51.636;4.948;2023-05-23T07:21:11;102414.95;;;21.02;60.57
59873;BME280;50750;51.636;4.948;2023-05-23T07:23:39;102414.83;;;21.02;60.68
59873;BME280;50750;51.636;4.948;2023-05-23T07:26:06;102417.33;;;21.01;60.56
59873;BME280;50750;51.636;4.948;2023-05-23T07:28:35;102420.36;;;21.01;60.56
59873;BME280;50750;51.636;4.948;2023-05-23T07:31:02;102422.86;;;21.01;60.78
59873;BME280;50750;51.636;4.948;2023-05-23T07:33:29;102421.66;;;21.00;60.54
59873;BME280;50750;51.636;4.948;2023-05-23T07:35:56;102421.67;;;21.00;60.67
59873;BME280;50750;51.636;4.948;2023-05-23T07:38:26;102423.14;;;20.99;60.77
59873;BME280;50750;51.636;4.948;2023-05-23T07:40:53;102424.94;;;20.99;60.78
59873;BME280;50750;51.636;4.948;2023-05-23T07:43:19;102422.27;;;20.98;60.68
59873;BME280;50750;51.636;4.948;2023-05-23T07:45:46;102425.15;;;20.97;60.67
59873;BME280;50750;51.636;4.948;2023-05-23T07:48:12;102423.95;;;20.97;60.68
59873;BME280;50750;51.636;4.948;2023-05-23T07:50:39;102427.70;;;20.96;60.58
59873;BME280;50750;51.636;4.948;2023-05-23T07:53:06;102430.27;;;20.95;60.54
59873;BME280;50750;51.636;4.948;2023-05-23T07:55:32;102428.13;;;20.95;60.68
59873;BME280;50750;51.636;4.948;2023-05-23T07:57:58;102431.00;;;20.94;60.52
59873;BME280;50750;51.636;4.948;2023-05-23T08:00:25;102440.63;;;20.94;60.69
59873;BME280;50750;51.636;4.948;2023-05-23T08:02:52;102437.84;;;20.93;60.69
59873;BME280;50750;51.636;4.948;2023-05-23T08:05:18;102436.44;;;20.93;60.79
59873;BME280;50750;51.636;4.948;2023-05-23T08:07:47;102441.23;;;20.93;60.73
59873;BME280;50750;51.636;4.948;2023-05-23T08:10:13;102443.05;;;20.92;60.77
59873;BME280;50750;51.636;4.948;2023-05-23T08:12:39;102443.78;;;20.92;60.85
59873;BME280;50750;51.636;4.948;2023-05-23T08:15:06;102446.66;;;20.91;60.75
59873;BME280;50750;51.636;4.948;2023-05-23T08:17:34;102449.00;;;20.91;60.84
59873;BME280;50750;51.636;4.948;2023-05-23T08:20:01;102449.20;;;20.90;60.94
59873;BME280;50750;51.636;4.948;2023-05-23T08:22:28;102444.77;;;20.90;60.89
59873;BME280;50750;51.636;4.948;2023-05-23T08:24:54;102446.05;;;20.89;60.78
59873;BME280;50750;51.636;4.948;2023-05-23T08:27:21;102446.77;;;20.89;60.80
59873;BME280;50750;51.636;4.948;2023-05-23T08:29:48;102448.04;;;20.89;60.93
59873;BME280;50750;51.636;4.948;2023-05-23T08:32:14;102443.39;;;20.89;60.92
59873;BME280;50750;51.636;4.948;2023-05-23T08:34:41;102447.80;;;20.90;60.90
59873;BME280;50750;51.636;4.948;2023-05-23T08:37:07;102446.16;;;20.90;60.78
59873;BME280;50750;51.636;4.948;2023-05-23T08:39:34;102445.77;;;20.91;60.92
59873;BME280;50750;51.636;4.948;2023-05-23T08:42:01;102447.37;;;20.91;60.83
59873;BME280;50750;51.636;4.948;2023-05-23T08:44:27;102455.49;;;20.92;60.83
59873;BME280;50750;51.636;4.948;2023-05-23T08:46:54;102452.98;;;20.93;60.80
59873;BME280;50750;51.636;4.948;2023-05-23T08:49:23;102452.82;;;20.93;60.69
59873;BME280;50750;51.636;4.948;2023-05-23T08:51:51;102460.09;;;20.93;60.79
59873;BME280;50750;51.636;4.948;2023-05-23T08:54:20;102457.63;;;20.93;60.78
59873;BME280;50750;51.636;4.948;2023-05-23T08:56:47;102460.12;;;20.92;60.75
59873;BME280;50750;51.636;4.948;2023-05-23T08:59:15;102462.09;;;20.92;60.76
59873;BME280;50750;51.636;4.948;2023-05-23T09:01:42;102462.65;;;20.92;60.63
59873;BME280;50750;51.636;4.948;2023-05-23T09:04:11;102462.27;;;20.92;60.69
59873;BME280;50750;51.636;4.948;2023-05-23T09:06:37;102459.65;;;20.91;60.79
59873;BME280;50750;51.636;4.948;2023-05-23T09:09:04;102463.23;;;20.91;60.72
59873;BME280;50750;51.636;4.948;2023-05-23T09:11:31;102467.71;;;20.90;60.73
59873;BME280;50750;51.636;4.948;2023-05-23T09:14:00;102470.94;;;20.90;60.59
59873;BME280;50750;51.636;4.948;2023-05-23T09:16:33;102466.30;;;20.90;60.53
59873;BME280;50750;51.636;4.948;2023-05-23T09:19:09;102465.25;;;20.89;60.66
59873;BME280;50750;51.636;4.948;2023-05-23T09:21:36;102464.20;;;20.89;60.56
59873;BME280;50750;51.636;4.948;2023-05-23T09:24:04;102463.85;;;20.89;60.56
59873;BME280;50750;51.636;4.948;2023-05-23T09:26:33;102465.84;;;20.89;60.64
59873;BME280;50750;51.636;4.948;2023-05-23T09:29:04;102467.30;;;20.88;60.55
59873;BME280;50750;51.636;4.948;2023-05-23T09:31:31;102472.64;;;20.88;60.61
59873;BME280;50750;51.636;4.948;2023-05-23T09:33:58;102473.55;;;20.88;60.61
59873;BME280;50750;51.636;4.948;2023-05-23T09:36:28;102471.02;;;20.88;60.58
59873;BME280;50750;51.636;4.948;2023-05-23T09:38:55;102472.61;;;20.88;60.31
59873;BME280;50750;51.636;4.948;2023-05-23T09:41:33;102473.66;;;20.89;60.48
59873;BME280;50750;51.636;4.948;2023-05-23T09:44:06;102479.46;;;20.90;60.22
59873;BME280;50750;51.636;4.948;2023-05-23T09:46:35;102477.11;;;20.91;60.31
59873;BME280;50750;51.636;4.948;2023-05-23T09:49:16;102476.32;;;20.93;60.08
59873;BME280;50750;51.636;4.948;2023-05-23T09:51:43;102471.73;;;20.95;60.19
59873;BME280;50750;51.636;4.948;2023-05-23T09:54:21;102472.73;;;20.97;60.06
59873;BME280;50750;51.636;4.948;2023-05-23T09:56:50;102477.08;;;21.00;59.96
59873;BME280;50750;51.636;4.948;2023-05-23T09:59:22;102476.45;;;21.01;59.95
59873;BME280;50750;51.636;4.948;2023-05-23T10:01:56;102476.70;;;21.04;59.80
59873;BME280;50750;51.636;4.948;2023-05-23T10:04:24;102472.14;;;21.06;59.67
59873;BME280;50750;51.636;4.948;2023-05-23T10:06:56;102473.98;;;21.08;59.60
59873;BME280;50750;51.636;4.948;2023-05-23T10:09:31;102473.16;;;21.10;59.56
59873;BME280;50750;51.636;4.948;2023-05-23T10:12:41;102475.03;;;21.12;59.49
59873;BME280;50750;51.636;4.948;2023-05-23T10:15:12;102482.06;;;21.14;59.38
59873;BME280;50750;51.636;4.948;2023-05-23T10:18:14;102486.45;;;21.15;59.37
59873;BME280;50750;51.636;4.948;2023-05-23T10:20:48;102489.25;;;21.16;59.33
59873;BME280;50750;51.636;4.948;2023-05-23T10:23:15;102488.52;;;21.16;59.17
59873;BME280;50750;51.636;4.948;2023-05-23T10:25:44;102494.45;;;21.16;59.28
59873;BME280;50750;51.636;4.948;2023-05-23T10:28:12;102495.34;;;21.15;59.29
59873;BME280;50750;51.636;4.948;2023-05-23T10:30:39;102493.27;;;21.14;59.36
59873;BME280;50750;51.636;4.948;2023-05-23T10:33:07;102493.54;;;21.13;59.25
59873;BME280;50750;51.636;4.948;2023-05-23T10:36:06;102492.16;;;21.12;59.15
59873;BME280;50750;51.636;4.948;2023-05-23T10:41:15;102489.45;;;21.09;59.27
59873;BME280;50750;51.636;4.948;2023-05-23T10:44:07;102486.84;;;21.08;59.39
59873;BME280;50750;51.636;4.948;2023-05-23T10:47:02;102483.69;;;21.06;59.36
59873;BME280;50750;51.636;4.948;2023-05-23T10:49:45;102482.68;;;21.05;59.47
59873;BME280;50750;51.636;4.948;2023-05-23T10:52:14;102481.33;;;21.04;59.39
59873;BME280;50750;51.636;4.948;2023-05-23T10:54:42;102485.79;;;21.03;59.38
59873;BME280;50750;51.636;4.948;2023-05-23T10:57:11;102485.63;;;21.03;59.35
59873;BME280;50750;51.636;4.948;2023-05-23T10:59:40;102485.31;;;21.02;59.39
59873;BME280;50750;51.636;4.948;2023-05-23T11:02:12;102484.43;;;21.02;59.41
59873;BME280;50750;51.636;4.948;2023-05-23T11:04:39;102488.21;;;21.01;59.36
59873;BME280;50750;51.636;4.948;2023-05-23T11:07:29;102485.91;;;21.01;59.07
59873;BME280;50750;51.636;4.948;2023-05-23T11:10:22;102484.34;;;21.00;59.01
59873;BME280;50750;51.636;4.948;2023-05-23T11:13:04;102484.89;;;21.00;59.14
59873;BME280;50750;51.636;4.948;2023-05-23T11:15:41;102484.73;;;21.00;59.11
59873;BME280;50750;51.636;4.948;2023-05-23T11:18:08;102486.34;;;20.99;59.22
59873;BME280;50750;51.636;4.948;2023-05-23T11:20:36;102484.38;;;21.00;59.15
59873;BME280;50750;51.636;4.948;2023-05-23T11:23:07;102484.20;;;20.99;59.17
59873;BME280;50750;51.636;4.948;2023-05-23T11:25:40;102479.06;;;20.99;59.01
59873;BME280;50750;51.636;4.948;2023-05-23T11:28:09;102476.23;;;20.99;59.15
59873;BME280;50750;51.636;4.948;2023-05-23T11:30:36;102483.15;;;20.99;58.93
59873;BME280;50750;51.636;4.948;2023-05-23T11:33:08;102482.62;;;20.99;58.86
59873;BME280;50750;51.636;4.948;2023-05-23T11:35:37;102487.78;;;20.99;58.67
59873;BME280;50750;51.636;4.948;2023-05-23T11:38:04;102491.35;;;20.99;58.67
59873;BME280;50750;51.636;4.948;2023-05-23T11:40:39;102493.13;;;20.99;58.72
59873;BME280;50750;51.636;4.948;2023-05-23T11:43:11;102490.99;;;20.99;58.71
59873;BME280;50750;51.636;4.948;2023-05-23T11:45:39;102487.45;;;20.99;58.79
59873;BME280;50750;51.636;4.948;2023-05-23T11:48:14;102489.23;;;20.99;58.75
59873;BME280;50750;51.636;4.948;2023-05-23T11:50:49;102488.87;;;20.99;58.57
59873;BME280;50750;51.636;4.948;2023-05-23T11:53:18;102488.52;;;20.99;58.71
59873;BME280;50750;51.636;4.948;2023-05-23T11:55:52;102489.77;;;20.99;58.65
59873;BME280;50750;51.636;4.948;2023-05-23T11:58:29;102490.11;;;20.99;58.65
59873;BME280;50750;51.636;4.948;2023-05-23T12:01:07;102487.96;;;20.99;58.45
59873;BME280;50750;51.636;4.948;2023-05-23T12:03:44;102495.26;;;20.99;58.45
59873;BME280;50750;51.636;4.948;2023-05-23T12:06:15;102490.04;;;21.00;58.52
59873;BME280;50750;51.636;4.948;2023-05-23T12:08:42;102501.76;;;21.01;58.49
59873;BME280;50750;51.636;4.948;2023-05-23T12:11:08;102504.61;;;21.01;58.49
59873;BME280;50750;51.636;4.948;2023-05-23T12:13:40;102501.22;;;21.01;58.26
59873;BME280;50750;51.636;4.948;2023-05-23T12:16:07;102508.52;;;21.01;58.22
59873;BME280;50750;51.636;4.948;2023-05-23T12:18:36;102508.84;;;21.02;58.23
59873;BME280;50750;51.636;4.948;2023-05-23T12:21:04;102505.61;;;21.02;58.30
59873;BME280;50750;51.636;4.948;2023-05-23T12:23:34;102506.34;;;21.02;58.28
59873;BME280;50750;51.636;4.948;2023-05-23T12:26:05;102508.98;;;21.03;58.29
59873;BME280;50750;51.636;4.948;2023-05-23T12:28:40;102508.59;;;21.03;58.27
59873;BME280;50750;51.636;4.948;2023-05-23T12:31:16;102506.99;;;21.03;58.38
59873;BME280;50750;51.636;4.948;2023-05-23T12:33:44;102513.21;;;21.03;58.15
59873;BME280;50750;51.636;4.948;2023-05-23T12:36:33;102519.95;;;21.04;58.18
59873;BME280;50750;51.636;4.948;2023-05-23T12:39:04;102520.31;;;21.04;58.15
59873;BME280;50750;51.636;4.948;2023-05-23T12:41:32;102512.12;;;21.04;58.22
59873;BME280;50750;51.636;4.948;2023-05-23T12:44:02;102506.20;;;21.05;58.18
59873;BME280;50750;51.636;4.948;2023-05-23T12:46:29;102512.58;;;21.05;58.25
59873;BME280;50750;51.636;4.948;2023-05-23T12:48:56;102522.35;;;21.06;58.33
59873;BME280;50750;51.636;4.948;2023-05-23T12:51:22;102518.61;;;21.06;58.23
59873;BME280;50750;51.636;4.948;2023-05-23T12:53:49;102518.82;;;21.05;58.19
59873;BME280;50750;51.636;4.948;2023-05-23T12:56:16;102521.08;;;21.07;58.22
59873;BME280;50750;51.636;4.948;2023-05-23T12:58:42;102514.52;;;21.06;58.34
59873;BME280;50750;51.636;4.948;2023-05-23T13:01:09;102516.97;;;21.07;58.16
59873;BME280;50750;51.636;4.948;2023-05-23T13:03:36;102508.42;;;21.07;58.07
59873;BME280;50750;51.636;4.948;2023-05-23T13:06:03;102503.77;;;21.07;57.97
59873;BME280;50750;51.636;4.948;2023-05-23T13:08:29;102497.34;;;21.07;57.70